This is the latest recevied weather packets stored in our database for station/object KC1OHT-13. If no packets are shown the sender has not sent any weather packets the latest 1 day(s).
| Time | Temp. | Humidity | Pressure | Rain* | Wind** | Luminosity | Snow |
|---|---|---|---|---|---|---|---|
| 1777983419 | 15.56° C | 74% | 1008 hPa | 0 mm | 1.79 m/s, 168° | 265 W/m² | - |
| 1777983115 | 15.56° C | 73% | 1008 hPa | 0 mm | 0.89 m/s, 205° | 252 W/m² | - |
| 1777982812 | 15° C | 74% | 1008.1 hPa | 0 mm | 0.89 m/s, 72° | 244 W/m² | - |
| 1777982507 | 15° C | 75% | 1007.9 hPa | 0 mm | 0.89 m/s, 180° | 229 W/m² | - |
| 1777982201 | 14.44° C | 78% | 1008 hPa | 0 mm | 0.89 m/s, 260° | 221 W/m² | - |
| 1777981900 | 14.44° C | 78% | 1007.9 hPa | 0 mm | 0.89 m/s, 34° | 209 W/m² | - |
| 1777981596 | 13.89° C | 78% | 1007.9 hPa | 0 mm | 0.89 m/s, 71° | 197 W/m² | - |
| 1777981293 | 13.89° C | 79% | 1008 hPa | 0 mm | 1.79 m/s, 189° | 180 W/m² | - |
| 1777980989 | 13.89° C | 78% | 1008 hPa | 0 mm | 0.89 m/s, 90° | 168 W/m² | - |
| 1777980686 | 13.33° C | 80% | 1008 hPa | 0 mm | 0.45 m/s, 43° | 159 W/m² | - |
| 1777980382 | 13.89° C | 79% | 1008 hPa | 0 mm | 1.34 m/s, 261° | 146 W/m² | - |
| 1777980081 | 13.33° C | 80% | 1008.3 hPa | 0 mm | 0.45 m/s, 168° | 132 W/m² | - |
| 1777979780 | 12.78° C | 81% | 1007.9 hPa | 0 mm | 0.89 m/s, 94° | 124 W/m² | - |
| 1777979476 | 12.78° C | 81% | 1007.9 hPa | 0 mm | 0.89 m/s, 284° | 84 W/m² | - |
| 1777979172 | 12.78° C | 81% | 1007.6 hPa | 0 mm | 0.89 m/s, 110° | 102 W/m² | - |
| 1777978870 | 12.78° C | 82% | 1007.7 hPa | 0 mm | 0.89 m/s, 227° | 88 W/m² | - |
| 1777978566 | 12.78° C | 82% | 1007.8 hPa | 0 mm | 0.89 m/s, 136° | 82 W/m² | - |
| 1777978262 | 12.78° C | 82% | 1007.8 hPa | 0 mm | 0.89 m/s, 60° | 73 W/m² | - |
| 1777977959 | 12.22° C | 82% | 1007.9 hPa | 0 mm | 1.34 m/s, 169° | 63 W/m² | - |
| 1777977656 | 12.22° C | 83% | 1007.8 hPa | 0 mm | 0.89 m/s, 62° | 54 W/m² | - |
| 1777977353 | 11.67° C | 85% | 1008 hPa | 0 mm | 0.89 m/s, 154° | 47 W/m² | - |
| 1777977050 | 11.67° C | 85% | 1008.1 hPa | 0 mm | 0.89 m/s, 95° | 31 W/m² | - |
| 1777976748 | 11.67° C | 85% | 1008 hPa | 0 mm | 0 m/s | 29 W/m² | - |
| 1777976445 | 11.67° C | 85% | 1007.8 hPa | 0 mm | 0.45 m/s, 35° | 25 W/m² | - |
| 1777976143 | 11.67° C | 86% | 1007.8 hPa | 0 mm | 0 m/s | 24 W/m² | - |
* Rain latest hour (hover to see other rain measurements)
** Current wind speed in m/s (hover to see current wind gust speed)